Dr.kaiyo — JD2325 — position and weather

sailwx.info

Track history (hours):
 
Tides and Currents Weather Stations Pressure Air Temp Water Temp Dewpoint Dewpoint Depression Visibility Wind Speed Wind Dir Waves Ship Positions

Dr.kaiyo

Last reported at 2018-Jun-20 04:59 UTC. Time now 2018-Jun-20 08:55 UTC.
Position N 34°41' E 135°12'.

Length 31 m.

Type: Other ship. MMSI: 431301823.

Date/timePositionNaut miles runAvg speedWind from/ knotsBaromVisibWave heightAir tempDewpointWater temp
2018-Jun-20 04:59N 34°41' E 135°12'3 5.6
2018-Jun-20 04:30N 34°41' E 135°15'4 8.2
2018-Jun-20 04:00N 34°41' E 135°20'0 0.0
2018-Jun-20 03:30N 34°41' E 135°20'0 0.0
2018-Jun-20 03:00N 34°41' E 135°20'0 0.0
2018-Jun-20 02:30N 34°41' E 135°20'0 0.0
2018-Jun-20 02:00N 34°41' E 135°20'0 0.0
2018-Jun-20 01:30N 34°41' E 135°20'2 3.8
2018-Jun-20 01:00N 34°39' E 135°20'713.3
2018-Jun-20 00:30N 34°36' E 135°13'3 5.9
2018-Jun-20 00:00N 34°39' E 135°11'3 6.2
2018-Jun-19 23:30N 34°41' E 135°12'0 0.0
2018-Jun-19 05:18N 34°41' E 135°12'1 2.2
2018-Jun-19 05:00N 34°41' E 135°13'4 8.8
2018-Jun-19 04:30N 34°38' E 135°17'5 9.7
2018-Jun-19 04:00N 34°35' E 135°21'0 0.0
2018-Jun-19 03:30N 34°35' E 135°21'0 0.0
2018-Jun-19 02:59N 34°35' E 135°21'510.4
2018-Jun-19 02:30N 34°32' E 135°17'713.5
2018-Jun-19 02:00N 34°27' E 135°11'611.2
2018-Jun-19 01:30N 34°27' E 135°04'611.2
2018-Jun-19 01:01N 34°32' E 135°01'510.5
2018-Jun-19 00:30N 34°34' E 135°07'510.9
2018-Jun-19 00:00N 34°38' E 135°11'3 6.7
2018-Jun-18 23:30N 34°41' E 135°12'0 0.0
2018-Jun-18 02:13N 34°41' E 135°12'0 0.0
2018-Jun-18 01:59N 34°41' E 135°12'0 0.0
2018-Jun-18 01:30N 34°41' E 135°12'0 0.0
2018-Jun-18 01:01N 34°41' E 135°12'  
2018-Jun-15 05:12N 34°41' E 135°12'0 1.8
2018-Jun-15 05:01N 34°42' E 135°13'3 6.7
2018-Jun-15 04:30N 34°39' E 135°15'4 8.6
2018-Jun-15 04:00N 34°41' E 135°19'0 0.0
2018-Jun-15 03:29N 34°41' E 135°19'0 0.0
2018-Jun-15 02:58N 34°41' E 135°19'1 2.5
2018-Jun-15 02:30N 34°40' E 135°18'712.8
2018-Jun-15 01:59N 34°35' E 135°13'613.2
2018-Jun-15 01:30N 34°30' E 135°09'5 9.9
2018-Jun-15 01:00N 34°28' E 135°03'611.2
2018-Jun-15 00:30N 34°33' E 135°06'713.2
2018-Jun-15 00:00N 34°39' E 135°11'3 6.3
2018-Jun-14 23:30N 34°41' E 135°12'0 0.0
2018-Jun-14 05:51N 34°41' E 135°12'1 1.7
2018-Jun-14 05:30N 34°41' E 135°13'5 9.2
2018-Jun-14 05:00N 34°37' E 135°10'4 8.5
2018-Jun-14 04:31N 34°36' E 135°05'611.7
2018-Jun-14 04:00N 34°31' E 135°02'3 6.5
2018-Jun-14 03:30N 34°28' E 135°01'4 8.6
2018-Jun-14 03:00N 34°29' E 135°06'5 9.8
2018-Jun-14 02:29N 34°32' E 135°11'510.7
2018-Jun-14 02:00N 34°29' E 135°16'510.6
2018-Jun-14 01:30N 34°32' E 135°21'4 8.7
2018-Jun-14 00:59N 34°37' E 135°21'3 7.1
2018-Jun-14 00:30N 34°40' E 135°21'510.6
2018-Jun-13 23:59N 34°37' E 135°15'4 8.9
2018-Jun-13 23:30N 34°41' E 135°14'1 2.8
2018-Jun-13 23:00N 34°41' E 135°12'0 0.0
2018-Jun-13 05:19N 34°41' E 135°12'1 1.9
2018-Jun-13 05:00N 34°41' E 135°13'4 8.1
2018-Jun-13 04:29N 34°39' E 135°17'3 6.0
2018-Jun-13 03:59N 34°41' E 135°20'0 0.0
2018-Jun-13 03:30N 34°41' E 135°20'0 0.0
2018-Jun-13 03:00N 34°41' E 135°20'1 2.2
2018-Jun-13 02:30N 34°40' E 135°19'612.8
2018-Jun-13 02:00N 34°34' E 135°17'612.9
2018-Jun-13 01:30N 34°30' E 135°11'3 6.2
2018-Jun-13 01:00N 34°30' E 135°07'4 7.8
2018-Jun-13 00:30N 34°34' E 135°06'713.2
2018-Jun-13 00:00N 34°39' E 135°11'3 6.1
2018-Jun-12 23:30N 34°41' E 135°12'0 0.0
2018-Jun-12 05:13N 34°41' E 135°12'0 1.8
2018-Jun-12 05:01N 34°42' E 135°13'4 7.6
2018-Jun-12 04:30N 34°39' E 135°16'3 6.5
2018-Jun-12 03:59N 34°40' E 135°20'0 0.0
2018-Jun-12 03:29N 34°40' E 135°20'0 0.0
2018-Jun-12 03:00N 34°40' E 135°20'5 9.2
2018-Jun-12 02:30N 34°36' E 135°16'713.6
2018-Jun-12 02:00N 34°31' E 135°11'612.8
2018-Jun-12 01:30N 34°27' E 135°05'4 8.0
2018-Jun-12 01:01N 34°30' E 135°03'5 9.3
2018-Jun-12 00:30N 34°34' E 135°06'713.3
2018-Jun-12 00:00N 34°40' E 135°11'2 4.0
2018-Jun-11 23:30N 34°41' E 135°12'0 0.0
2018-Jun-11 04:57N 34°41' E 135°12'2 5.4
2018-Jun-11 04:30N 34°41' E 135°15'4 7.9
2018-Jun-11 04:00N 34°40' E 135°20'0 0.0
2018-Jun-11 03:30N 34°40' E 135°20'0 0.0
2018-Jun-11 03:00N 34°40' E 135°20'4 8.9
2018-Jun-11 02:30N 34°35' E 135°18'713.4
2018-Jun-11 02:01N 34°29' E 135°18'612.1
2018-Jun-11 01:30N 34°24' E 135°13'612.6
2018-Jun-11 01:00N 34°29' E 135°10'612.6
2018-Jun-11 00:30N 34°35' E 135°07'713.1
2018-Jun-10 23:58N 34°40' E 135°12'1 2.4
2018-Jun-10 23:30N 34°41' E 135°12'  
Track history (hours):
 
Tides and Currents Weather Stations Pressure Air Temp Water Temp Dewpoint Dewpoint Depression Visibility Wind Speed Wind Dir Waves Ship Positions

Dr.kaiyo

Last reported at 2018-Jun-20 04:59 UTC. Time now 2018-Jun-20 08:55 UTC.
Position N 34°41' E 135°12'.

Length 31 m.

Type: Other ship. MMSI: 431301823.

Date/timePositionNaut miles runAvg speedWind from/ knotsBaromVisibWave heightAir tempDewpointWater temp
2018-Jun-20 04:59N 34°41' E 135°12'3 5.6
2018-Jun-20 04:30N 34°41' E 135°15'4 8.2
2018-Jun-20 04:00N 34°41' E 135°20'0 0.0
2018-Jun-20 03:30N 34°41' E 135°20'0 0.0
2018-Jun-20 03:00N 34°41' E 135°20'0 0.0
2018-Jun-20 02:30N 34°41' E 135°20'0 0.0
2018-Jun-20 02:00N 34°41' E 135°20'0 0.0
2018-Jun-20 01:30N 34°41' E 135°20'2 3.8
2018-Jun-20 01:00N 34°39' E 135°20'713.3
2018-Jun-20 00:30N 34°36' E 135°13'3 5.9
2018-Jun-20 00:00N 34°39' E 135°11'3 6.2
2018-Jun-19 23:30N 34°41' E 135°12'0 0.0
2018-Jun-19 05:18N 34°41' E 135°12'1 2.2
2018-Jun-19 05:00N 34°41' E 135°13'4 8.8
2018-Jun-19 04:30N 34°38' E 135°17'5 9.7
2018-Jun-19 04:00N 34°35' E 135°21'0 0.0
2018-Jun-19 03:30N 34°35' E 135°21'0 0.0
2018-Jun-19 02:59N 34°35' E 135°21'510.4
2018-Jun-19 02:30N 34°32' E 135°17'713.5
2018-Jun-19 02:00N 34°27' E 135°11'611.2
2018-Jun-19 01:30N 34°27' E 135°04'611.2
2018-Jun-19 01:01N 34°32' E 135°01'510.5
2018-Jun-19 00:30N 34°34' E 135°07'510.9
2018-Jun-19 00:00N 34°38' E 135°11'3 6.7
2018-Jun-18 23:30N 34°41' E 135°12'0 0.0
2018-Jun-18 02:13N 34°41' E 135°12'0 0.0
2018-Jun-18 01:59N 34°41' E 135°12'0 0.0
2018-Jun-18 01:30N 34°41' E 135°12'0 0.0
2018-Jun-18 01:01N 34°41' E 135°12'  
2018-Jun-15 05:12N 34°41' E 135°12'0 1.8
2018-Jun-15 05:01N 34°42' E 135°13'3 6.7
2018-Jun-15 04:30N 34°39' E 135°15'4 8.6
2018-Jun-15 04:00N 34°41' E 135°19'0 0.0
2018-Jun-15 03:29N 34°41' E 135°19'0 0.0
2018-Jun-15 02:58N 34°41' E 135°19'1 2.5
2018-Jun-15 02:30N 34°40' E 135°18'712.8
2018-Jun-15 01:59N 34°35' E 135°13'613.2
2018-Jun-15 01:30N 34°30' E 135°09'5 9.9
2018-Jun-15 01:00N 34°28' E 135°03'611.2
2018-Jun-15 00:30N 34°33' E 135°06'713.2
2018-Jun-15 00:00N 34°39' E 135°11'3 6.3
2018-Jun-14 23:30N 34°41' E 135°12'0 0.0
2018-Jun-14 05:51N 34°41' E 135°12'1 1.7
2018-Jun-14 05:30N 34°41' E 135°13'5 9.2
2018-Jun-14 05:00N 34°37' E 135°10'4 8.5
2018-Jun-14 04:31N 34°36' E 135°05'611.7
2018-Jun-14 04:00N 34°31' E 135°02'3 6.5
2018-Jun-14 03:30N 34°28' E 135°01'4 8.6
2018-Jun-14 03:00N 34°29' E 135°06'5 9.8
2018-Jun-14 02:29N 34°32' E 135°11'510.7
2018-Jun-14 02:00N 34°29' E 135°16'510.6
2018-Jun-14 01:30N 34°32' E 135°21'4 8.7
2018-Jun-14 00:59N 34°37' E 135°21'3 7.1
2018-Jun-14 00:30N 34°40' E 135°21'510.6
2018-Jun-13 23:59N 34°37' E 135°15'4 8.9
2018-Jun-13 23:30N 34°41' E 135°14'1 2.8
2018-Jun-13 23:00N 34°41' E 135°12'0 0.0
2018-Jun-13 05:19N 34°41' E 135°12'1 1.9
2018-Jun-13 05:00N 34°41' E 135°13'4 8.1
2018-Jun-13 04:29N 34°39' E 135°17'3 6.0
2018-Jun-13 03:59N 34°41' E 135°20'0 0.0
2018-Jun-13 03:30N 34°41' E 135°20'0 0.0
2018-Jun-13 03:00N 34°41' E 135°20'1 2.2
2018-Jun-13 02:30N 34°40' E 135°19'612.8
2018-Jun-13 02:00N 34°34' E 135°17'612.9
2018-Jun-13 01:30N 34°30' E 135°11'3 6.2
2018-Jun-13 01:00N 34°30' E 135°07'4 7.8
2018-Jun-13 00:30N 34°34' E 135°06'713.2
2018-Jun-13 00:00N 34°39' E 135°11'3 6.1
2018-Jun-12 23:30N 34°41' E 135°12'0 0.0
2018-Jun-12 05:13N 34°41' E 135°12'0 1.8
2018-Jun-12 05:01N 34°42' E 135°13'4 7.6
2018-Jun-12 04:30N 34°39' E 135°16'3 6.5
2018-Jun-12 03:59N 34°40' E 135°20'0 0.0
2018-Jun-12 03:29N 34°40' E 135°20'0 0.0
2018-Jun-12 03:00N 34°40' E 135°20'5 9.2
2018-Jun-12 02:30N 34°36' E 135°16'713.6
2018-Jun-12 02:00N 34°31' E 135°11'612.8
2018-Jun-12 01:30N 34°27' E 135°05'4 8.0
2018-Jun-12 01:01N 34°30' E 135°03'5 9.3
2018-Jun-12 00:30N 34°34' E 135°06'713.3
2018-Jun-12 00:00N 34°40' E 135°11'2 4.0
2018-Jun-11 23:30N 34°41' E 135°12'0 0.0
2018-Jun-11 04:57N 34°41' E 135°12'2 5.4
2018-Jun-11 04:30N 34°41' E 135°15'4 7.9
2018-Jun-11 04:00N 34°40' E 135°20'0 0.0
2018-Jun-11 03:30N 34°40' E 135°20'0 0.0
2018-Jun-11 03:00N 34°40' E 135°20'4 8.9
2018-Jun-11 02:30N 34°35' E 135°18'713.4
2018-Jun-11 02:01N 34°29' E 135°18'612.1
2018-Jun-11 01:30N 34°24' E 135°13'612.6
2018-Jun-11 01:00N 34°29' E 135°10'612.6
2018-Jun-11 00:30N 34°35' E 135°07'713.1
2018-Jun-10 23:58N 34°40' E 135°12'1 2.4
2018-Jun-10 23:30N 34°41' E 135°12'  

Dump ship's entire track history